sensor_id;sensor_type;location;lat;lon;timestamp;P1;durP1;ratioP1;P2;durP2;ratioP2
68593;SDS011;55563;52.416;13.548;2023-11-19T00:00:09;3.10;;;1.80;;
68593;SDS011;55563;52.416;13.548;2023-11-19T00:02:12;2.55;;;1.70;;
68593;SDS011;55563;52.416;13.548;2023-11-19T00:04:12;3.65;;;2.03;;
68593;SDS011;55563;52.416;13.548;2023-11-19T00:06:13;3.28;;;1.90;;
68593;SDS011;55563;52.416;13.548;2023-11-19T00:08:14;3.72;;;1.85;;
68593;SDS011;55563;52.416;13.548;2023-11-19T00:10:15;3.92;;;2.05;;
68593;SDS011;55563;52.416;13.548;2023-11-19T00:12:18;3.00;;;2.17;;
68593;SDS011;55563;52.416;13.548;2023-11-19T00:14:19;4.05;;;2.00;;
68593;SDS011;55563;52.416;13.548;2023-11-19T00:16:20;3.35;;;2.10;;
68593;SDS011;55563;52.416;13.548;2023-11-19T00:18:20;4.03;;;2.00;;
68593;SDS011;55563;52.416;13.548;2023-11-19T00:20:21;3.33;;;1.98;;
68593;SDS011;55563;52.416;13.548;2023-11-19T00:24:23;3.10;;;1.90;;
68593;SDS011;55563;52.416;13.548;2023-11-19T00:26:24;4.03;;;1.65;;
68593;SDS011;55563;52.416;13.548;2023-11-19T00:28:26;2.88;;;1.92;;
68593;SDS011;55563;52.416;13.548;2023-11-19T00:30:27;3.22;;;2.13;;
68593;SDS011;55563;52.416;13.548;2023-11-19T00:32:28;3.65;;;1.90;;
68593;SDS011;55563;52.416;13.548;2023-11-19T00:34:29;3.35;;;1.90;;
68593;SDS011;55563;52.416;13.548;2023-11-19T00:36:30;3.22;;;1.80;;
68593;SDS011;55563;52.416;13.548;2023-11-19T00:38:30;3.72;;;2.05;;
68593;SDS011;55563;52.416;13.548;2023-11-19T00:40:31;4.75;;;2.35;;
68593;SDS011;55563;52.416;13.548;2023-11-19T00:42:32;3.85;;;2.10;;
68593;SDS011;55563;52.416;13.548;2023-11-19T00:44:32;3.50;;;2.00;;
68593;SDS011;55563;52.416;13.548;2023-11-19T00:46:33;4.03;;;2.22;;
68593;SDS011;55563;52.416;13.548;2023-11-19T00:48:34;4.15;;;2.30;;
68593;SDS011;55563;52.416;13.548;2023-11-19T00:50:34;3.92;;;2.28;;
68593;SDS011;55563;52.416;13.548;2023-11-19T00:52:35;3.00;;;1.83;;
68593;SDS011;55563;52.416;13.548;2023-11-19T00:54:37;4.03;;;1.90;;
68593;SDS011;55563;52.416;13.548;2023-11-19T00:56:37;4.03;;;1.95;;
68593;SDS011;55563;52.416;13.548;2023-11-19T00:58:38;3.42;;;2.05;;
68593;SDS011;55563;52.416;13.548;2023-11-19T01:00:39;5.55;;;2.15;;
68593;SDS011;55563;52.416;13.548;2023-11-19T01:02:40;2.90;;;1.73;;
68593;SDS011;55563;52.416;13.548;2023-11-19T01:04:40;3.58;;;2.00;;
68593;SDS011;55563;52.416;13.548;2023-11-19T01:06:42;2.67;;;1.65;;
68593;SDS011;55563;52.416;13.548;2023-11-19T01:08:43;3.00;;;1.83;;
68593;SDS011;55563;52.416;13.548;2023-11-19T01:10:45;3.70;;;2.13;;
68593;SDS011;55563;52.416;13.548;2023-11-19T01:12:45;2.90;;;1.65;;
68593;SDS011;55563;52.416;13.548;2023-11-19T01:14:46;3.65;;;2.08;;
68593;SDS011;55563;52.416;13.548;2023-11-19T01:16:47;4.65;;;2.08;;
68593;SDS011;55563;52.416;13.548;2023-11-19T01:18:47;3.53;;;2.20;;
68593;SDS011;55563;52.416;13.548;2023-11-19T01:20:48;2.80;;;1.83;;
68593;SDS011;55563;52.416;13.548;2023-11-19T01:22:49;2.92;;;1.92;;
68593;SDS011;55563;52.416;13.548;2023-11-19T01:24:51;2.95;;;1.98;;
68593;SDS011;55563;52.416;13.548;2023-11-19T01:26:52;3.25;;;1.70;;
68593;SDS011;55563;52.416;13.548;2023-11-19T01:28:53;3.08;;;1.98;;
68593;SDS011;55563;52.416;13.548;2023-11-19T01:30:54;3.47;;;1.70;;
68593;SDS011;55563;52.416;13.548;2023-11-19T01:32:54;2.90;;;1.70;;
68593;SDS011;55563;52.416;13.548;2023-11-19T01:34:56;3.22;;;1.98;;
68593;SDS011;55563;52.416;13.548;2023-11-19T01:36:56;3.03;;;1.70;;
68593;SDS011;55563;52.416;13.548;2023-11-19T01:38:57;3.30;;;1.83;;
68593;SDS011;55563;52.416;13.548;2023-11-19T01:40:57;3.13;;;1.85;;
68593;SDS011;55563;52.416;13.548;2023-11-19T01:42:58;2.53;;;1.60;;
68593;SDS011;55563;52.416;13.548;2023-11-19T01:45:00;3.92;;;1.95;;
68593;SDS011;55563;52.416;13.548;2023-11-19T01:47:01;3.45;;;1.85;;
68593;SDS011;55563;52.416;13.548;2023-11-19T01:49:03;2.58;;;1.73;;
68593;SDS011;55563;52.416;13.548;2023-11-19T01:51:06;3.47;;;2.10;;
68593;SDS011;55563;52.416;13.548;2023-11-19T01:53:08;3.25;;;1.90;;
68593;SDS011;55563;52.416;13.548;2023-11-19T01:55:09;3.65;;;1.80;;
68593;SDS011;55563;52.416;13.548;2023-11-19T01:57:11;3.42;;;1.88;;
68593;SDS011;55563;52.416;13.548;2023-11-19T01:59:13;2.90;;;1.65;;
68593;SDS011;55563;52.416;13.548;2023-11-19T02:01:14;3.25;;;2.05;;
68593;SDS011;55563;52.416;13.548;2023-11-19T02:03:15;3.20;;;2.03;;
68593;SDS011;55563;52.416;13.548;2023-11-19T02:05:16;3.45;;;1.80;;
68593;SDS011;55563;52.416;13.548;2023-11-19T02:07:17;3.22;;;1.83;;
68593;SDS011;55563;52.416;13.548;2023-11-19T02:09:18;4.03;;;1.98;;
68593;SDS011;55563;52.416;13.548;2023-11-19T02:11:19;2.60;;;1.60;;
68593;SDS011;55563;52.416;13.548;2023-11-19T02:13:20;2.15;;;1.40;;
68593;SDS011;55563;52.416;13.548;2023-11-19T02:15:21;4.22;;;1.88;;
68593;SDS011;55563;52.416;13.548;2023-11-19T02:17:25;4.07;;;1.95;;
68593;SDS011;55563;52.416;13.548;2023-11-19T02:19:27;2.88;;;1.70;;
68593;SDS011;55563;52.416;13.548;2023-11-19T02:21:29;3.47;;;2.08;;
68593;SDS011;55563;52.416;13.548;2023-11-19T02:23:30;2.78;;;1.58;;
68593;SDS011;55563;52.416;13.548;2023-11-19T02:25:31;2.47;;;1.73;;
68593;SDS011;55563;52.416;13.548;2023-11-19T02:27:40;3.03;;;1.70;;
68593;SDS011;55563;52.416;13.548;2023-11-19T02:29:49;3.47;;;1.58;;
68593;SDS011;55563;52.416;13.548;2023-11-19T02:31:49;3.40;;;1.73;;
68593;SDS011;55563;52.416;13.548;2023-11-19T02:33:50;2.72;;;1.63;;
68593;SDS011;55563;52.416;13.548;2023-11-19T02:35:50;2.67;;;1.70;;
68593;SDS011;55563;52.416;13.548;2023-11-19T02:37:51;2.50;;;1.70;;
68593;SDS011;55563;52.416;13.548;2023-11-19T02:39:52;2.25;;;1.58;;
68593;SDS011;55563;52.416;13.548;2023-11-19T02:41:53;2.78;;;1.60;;
68593;SDS011;55563;52.416;13.548;2023-11-19T02:43:53;2.92;;;1.80;;
68593;SDS011;55563;52.416;13.548;2023-11-19T02:45:54;4.43;;;1.88;;
68593;SDS011;55563;52.416;13.548;2023-11-19T02:47:55;2.92;;;1.77;;
68593;SDS011;55563;52.416;13.548;2023-11-19T02:49:56;2.97;;;1.60;;
68593;SDS011;55563;52.416;13.548;2023-11-19T02:51:57;2.45;;;1.50;;
68593;SDS011;55563;52.416;13.548;2023-11-19T02:56:00;2.30;;;1.60;;
68593;SDS011;55563;52.416;13.548;2023-11-19T02:58:03;2.88;;;1.65;;
68593;SDS011;55563;52.416;13.548;2023-11-19T03:00:20;2.80;;;1.83;;
68593;SDS011;55563;52.416;13.548;2023-11-19T03:02:24;2.88;;;1.70;;
68593;SDS011;55563;52.416;13.548;2023-11-19T03:04:33;2.85;;;1.67;;
68593;SDS011;55563;52.416;13.548;2023-11-19T03:06:34;3.42;;;1.80;;
68593;SDS011;55563;52.416;13.548;2023-11-19T03:08:35;2.58;;;1.58;;
68593;SDS011;55563;52.416;13.548;2023-11-19T03:10:39;2.38;;;1.55;;
68593;SDS011;55563;52.416;13.548;2023-11-19T03:12:41;2.95;;;1.52;;
68593;SDS011;55563;52.416;13.548;2023-11-19T03:14:43;2.35;;;1.63;;
68593;SDS011;55563;52.416;13.548;2023-11-19T03:16:45;2.20;;;1.42;;
68593;SDS011;55563;52.416;13.548;2023-11-19T03:18:47;5.03;;;1.90;;
68593;SDS011;55563;52.416;13.548;2023-11-19T03:20:47;2.05;;;1.45;;
68593;SDS011;55563;52.416;13.548;2023-11-19T03:22:49;5.38;;;1.60;;
68593;SDS011;55563;52.416;13.548;2023-11-19T03:24:51;2.50;;;1.80;;
68593;SDS011;55563;52.416;13.548;2023-11-19T03:26:52;2.85;;;1.40;;
68593;SDS011;55563;52.416;13.548;2023-11-19T03:28:53;2.90;;;1.50;;
68593;SDS011;55563;52.416;13.548;2023-11-19T03:30:54;2.28;;;1.60;;
68593;SDS011;55563;52.416;13.548;2023-11-19T03:32:55;2.80;;;1.80;;
68593;SDS011;55563;52.416;13.548;2023-11-19T03:34:57;2.80;;;1.38;;
68593;SDS011;55563;52.416;13.548;2023-11-19T03:36:58;2.85;;;1.58;;
68593;SDS011;55563;52.416;13.548;2023-11-19T03:38:58;1.98;;;1.50;;
68593;SDS011;55563;52.416;13.548;2023-11-19T03:40:59;2.40;;;1.70;;
68593;SDS011;55563;52.416;13.548;2023-11-19T03:43:00;2.92;;;1.55;;
68593;SDS011;55563;52.416;13.548;2023-11-19T03:45:00;3.00;;;1.80;;
68593;SDS011;55563;52.416;13.548;2023-11-19T03:47:01;3.03;;;1.75;;
68593;SDS011;55563;52.416;13.548;2023-11-19T03:49:01;1.67;;;1.17;;
68593;SDS011;55563;52.416;13.548;2023-11-19T03:51:04;2.13;;;1.30;;
68593;SDS011;55563;52.416;13.548;2023-11-19T03:53:05;2.00;;;1.45;;
68593;SDS011;55563;52.416;13.548;2023-11-19T03:55:06;3.15;;;1.67;;
68593;SDS011;55563;52.416;13.548;2023-11-19T03:57:08;2.75;;;1.55;;
68593;SDS011;55563;52.416;13.548;2023-11-19T03:59:11;3.60;;;1.67;;
68593;SDS011;55563;52.416;13.548;2023-11-19T04:01:12;2.45;;;1.67;;
68593;SDS011;55563;52.416;13.548;2023-11-19T04:03:14;3.03;;;1.52;;
68593;SDS011;55563;52.416;13.548;2023-11-19T04:05:15;2.15;;;1.42;;
68593;SDS011;55563;52.416;13.548;2023-11-19T04:07:15;2.53;;;1.60;;
68593;SDS011;55563;52.416;13.548;2023-11-19T04:09:16;2.53;;;1.48;;
68593;SDS011;55563;52.416;13.548;2023-11-19T04:11:17;2.42;;;1.55;;
68593;SDS011;55563;52.416;13.548;2023-11-19T04:13:17;3.38;;;1.80;;
68593;SDS011;55563;52.416;13.548;2023-11-19T04:15:18;2.63;;;1.55;;
68593;SDS011;55563;52.416;13.548;2023-11-19T04:17:18;2.35;;;1.52;;
68593;SDS011;55563;52.416;13.548;2023-11-19T04:19:19;2.65;;;1.80;;
68593;SDS011;55563;52.416;13.548;2023-11-19T04:21:20;2.47;;;1.40;;
68593;SDS011;55563;52.416;13.548;2023-11-19T04:23:20;2.85;;;1.67;;
68593;SDS011;55563;52.416;13.548;2023-11-19T04:25:22;2.10;;;1.25;;
68593;SDS011;55563;52.416;13.548;2023-11-19T04:27:24;2.13;;;1.40;;
68593;SDS011;55563;52.416;13.548;2023-11-19T04:29:25;2.17;;;1.65;;
68593;SDS011;55563;52.416;13.548;2023-11-19T04:31:30;2.40;;;1.60;;
68593;SDS011;55563;52.416;13.548;2023-11-19T04:33:32;2.25;;;1.45;;
68593;SDS011;55563;52.416;13.548;2023-11-19T04:35:33;2.40;;;1.52;;
68593;SDS011;55563;52.416;13.548;2023-11-19T04:37:33;2.83;;;1.63;;
68593;SDS011;55563;52.416;13.548;2023-11-19T04:39:34;2.83;;;1.50;;
68593;SDS011;55563;52.416;13.548;2023-11-19T04:41:35;2.63;;;1.30;;
68593;SDS011;55563;52.416;13.548;2023-11-19T04:43:36;1.90;;;1.40;;
68593;SDS011;55563;52.416;13.548;2023-11-19T04:45:37;1.90;;;1.30;;
68593;SDS011;55563;52.416;13.548;2023-11-19T04:47:38;2.72;;;1.52;;
68593;SDS011;55563;52.416;13.548;2023-11-19T04:49:40;4.28;;;1.50;;
68593;SDS011;55563;52.416;13.548;2023-11-19T04:51:43;2.42;;;1.52;;
68593;SDS011;55563;52.416;13.548;2023-11-19T04:53:47;2.20;;;1.63;;
68593;SDS011;55563;52.416;13.548;2023-11-19T04:55:48;2.53;;;1.58;;
68593;SDS011;55563;52.416;13.548;2023-11-19T04:57:49;2.10;;;1.63;;
68593;SDS011;55563;52.416;13.548;2023-11-19T04:59:49;2.75;;;1.70;;
68593;SDS011;55563;52.416;13.548;2023-11-19T05:01:50;2.63;;;1.42;;
68593;SDS011;55563;52.416;13.548;2023-11-19T05:03:50;2.55;;;1.60;;
68593;SDS011;55563;52.416;13.548;2023-11-19T05:05:51;3.42;;;1.80;;
68593;SDS011;55563;52.416;13.548;2023-11-19T05:07:52;3.25;;;1.58;;
68593;SDS011;55563;52.416;13.548;2023-11-19T05:09:52;2.67;;;1.80;;
68593;SDS011;55563;52.416;13.548;2023-11-19T05:11:53;3.28;;;1.73;;
68593;SDS011;55563;52.416;13.548;2023-11-19T05:13:54;3.15;;;1.70;;
68593;SDS011;55563;52.416;13.548;2023-11-19T05:15:54;3.03;;;1.70;;
68593;SDS011;55563;52.416;13.548;2023-11-19T05:17:55;2.67;;;1.48;;
68593;SDS011;55563;52.416;13.548;2023-11-19T05:19:56;2.35;;;1.55;;
68593;SDS011;55563;52.416;13.548;2023-11-19T05:21:56;3.35;;;1.70;;
68593;SDS011;55563;52.416;13.548;2023-11-19T05:23:57;3.28;;;1.70;;
68593;SDS011;55563;52.416;13.548;2023-11-19T05:26:51;3.22;;;1.75;;
68593;SDS011;55563;52.416;13.548;2023-11-19T05:28:51;2.08;;;1.40;;
68593;SDS011;55563;52.416;13.548;2023-11-19T05:30:52;3.13;;;1.58;;
68593;SDS011;55563;52.416;13.548;2023-11-19T05:32:52;2.65;;;1.40;;
68593;SDS011;55563;52.416;13.548;2023-11-19T05:34:53;2.70;;;1.50;;
68593;SDS011;55563;52.416;13.548;2023-11-19T05:36:53;1.98;;;1.30;;
68593;SDS011;55563;52.416;13.548;2023-11-19T05:38:54;2.22;;;1.42;;
68593;SDS011;55563;52.416;13.548;2023-11-19T05:40:55;2.78;;;1.42;;
68593;SDS011;55563;52.416;13.548;2023-11-19T05:42:55;2.75;;;1.60;;
68593;SDS011;55563;52.416;13.548;2023-11-19T05:44:56;2.58;;;1.60;;
68593;SDS011;55563;52.416;13.548;2023-11-19T05:46:58;2.05;;;1.45;;
68593;SDS011;55563;52.416;13.548;2023-11-19T05:48:59;2.30;;;1.48;;
68593;SDS011;55563;52.416;13.548;2023-11-19T05:50:59;2.45;;;1.60;;
68593;SDS011;55563;52.416;13.548;2023-11-19T05:53:00;3.15;;;1.85;;
68593;SDS011;55563;52.416;13.548;2023-11-19T05:55:02;2.88;;;1.33;;
68593;SDS011;55563;52.416;13.548;2023-11-19T05:59:10;1.85;;;1.33;;
68593;SDS011;55563;52.416;13.548;2023-11-19T06:01:15;1.50;;;1.10;;
68593;SDS011;55563;52.416;13.548;2023-11-19T06:03:15;2.22;;;1.38;;
68593;SDS011;55563;52.416;13.548;2023-11-19T06:05:16;2.35;;;1.33;;
68593;SDS011;55563;52.416;13.548;2023-11-19T06:07:17;2.42;;;1.45;;
68593;SDS011;55563;52.416;13.548;2023-11-19T06:09:17;2.33;;;1.52;;
68593;SDS011;55563;52.416;13.548;2023-11-19T06:11:19;1.98;;;1.20;;
68593;SDS011;55563;52.416;13.548;2023-11-19T06:13:21;2.47;;;1.60;;
68593;SDS011;55563;52.416;13.548;2023-11-19T06:15:23;1.98;;;1.23;;
68593;SDS011;55563;52.416;13.548;2023-11-19T06:17:24;2.00;;;1.40;;
68593;SDS011;55563;52.416;13.548;2023-11-19T06:19:25;3.42;;;1.38;;
68593;SDS011;55563;52.416;13.548;2023-11-19T06:21:25;1.65;;;1.25;;
68593;SDS011;55563;52.416;13.548;2023-11-19T06:23:26;2.38;;;1.40;;
68593;SDS011;55563;52.416;13.548;2023-11-19T06:25:27;2.17;;;1.25;;
68593;SDS011;55563;52.416;13.548;2023-11-19T06:27:28;2.20;;;1.33;;
68593;SDS011;55563;52.416;13.548;2023-11-19T06:29:28;1.55;;;1.23;;
68593;SDS011;55563;52.416;13.548;2023-11-19T06:31:29;2.45;;;1.40;;
68593;SDS011;55563;52.416;13.548;2023-11-19T06:33:30;1.48;;;1.20;;
68593;SDS011;55563;52.416;13.548;2023-11-19T06:35:31;2.13;;;1.27;;
68593;SDS011;55563;52.416;13.548;2023-11-19T06:37:38;2.00;;;1.30;;
68593;SDS011;55563;52.416;13.548;2023-11-19T06:39:39;1.75;;;1.30;;
68593;SDS011;55563;52.416;13.548;2023-11-19T06:43:44;1.88;;;1.27;;
68593;SDS011;55563;52.416;13.548;2023-11-19T06:45:45;2.42;;;1.63;;
68593;SDS011;55563;52.416;13.548;2023-11-19T06:47:45;2.00;;;1.30;;
68593;SDS011;55563;52.416;13.548;2023-11-19T06:49:46;1.55;;;1.10;;
68593;SDS011;55563;52.416;13.548;2023-11-19T06:51:47;1.88;;;1.30;;
68593;SDS011;55563;52.416;13.548;2023-11-19T06:53:47;1.77;;;1.27;;
68593;SDS011;55563;52.416;13.548;2023-11-19T06:55:48;1.88;;;1.15;;
68593;SDS011;55563;52.416;13.548;2023-11-19T06:57:49;1.85;;;1.23;;
68593;SDS011;55563;52.416;13.548;2023-11-19T06:59:49;1.83;;;1.17;;
68593;SDS011;55563;52.416;13.548;2023-11-19T07:01:50;1.58;;;1.13;;
68593;SDS011;55563;52.416;13.548;2023-11-19T07:03:50;1.45;;;1.10;;
68593;SDS011;55563;52.416;13.548;2023-11-19T07:05:51;1.73;;;1.13;;
68593;SDS011;55563;52.416;13.548;2023-11-19T07:07:52;1.35;;;0.98;;
68593;SDS011;55563;52.416;13.548;2023-11-19T07:09:52;1.65;;;1.13;;
68593;SDS011;55563;52.416;13.548;2023-11-19T07:11:53;2.13;;;1.52;;
68593;SDS011;55563;52.416;13.548;2023-11-19T07:13:54;1.20;;;1.00;;
68593;SDS011;55563;52.416;13.548;2023-11-19T07:15:55;1.85;;;1.40;;
68593;SDS011;55563;52.416;13.548;2023-11-19T07:17:56;4.15;;;2.53;;
68593;SDS011;55563;52.416;13.548;2023-11-19T07:19:58;1.90;;;1.50;;
68593;SDS011;55563;52.416;13.548;2023-11-19T07:22:00;4.22;;;2.60;;
68593;SDS011;55563;52.416;13.548;2023-11-19T07:24:00;2.92;;;1.73;;
68593;SDS011;55563;52.416;13.548;2023-11-19T07:26:04;2.03;;;1.30;;
68593;SDS011;55563;52.416;13.548;2023-11-19T07:28:08;2.42;;;1.42;;
68593;SDS011;55563;52.416;13.548;2023-11-19T07:30:10;2.08;;;1.30;;
68593;SDS011;55563;52.416;13.548;2023-11-19T07:32:11;2.67;;;1.60;;
68593;SDS011;55563;52.416;13.548;2023-11-19T07:34:13;2.97;;;1.80;;
68593;SDS011;55563;52.416;13.548;2023-11-19T07:36:14;4.45;;;2.17;;
68593;SDS011;55563;52.416;13.548;2023-11-19T07:38:14;2.85;;;1.60;;
68593;SDS011;55563;52.416;13.548;2023-11-19T07:40:15;1.98;;;1.08;;
68593;SDS011;55563;52.416;13.548;2023-11-19T07:42:16;2.00;;;1.55;;
68593;SDS011;55563;52.416;13.548;2023-11-19T07:44:16;2.00;;;1.63;;
68593;SDS011;55563;52.416;13.548;2023-11-19T07:46:17;1.75;;;1.35;;
68593;SDS011;55563;52.416;13.548;2023-11-19T07:48:19;2.60;;;1.48;;
68593;SDS011;55563;52.416;13.548;2023-11-19T07:50:23;3.67;;;2.25;;
68593;SDS011;55563;52.416;13.548;2023-11-19T07:52:25;4.30;;;1.98;;
68593;SDS011;55563;52.416;13.548;2023-11-19T07:54:26;4.15;;;2.17;;
68593;SDS011;55563;52.416;13.548;2023-11-19T07:56:27;2.47;;;1.90;;
68593;SDS011;55563;52.416;13.548;2023-11-19T07:58:27;2.30;;;1.75;;
68593;SDS011;55563;52.416;13.548;2023-11-19T08:00:28;2.58;;;1.52;;
68593;SDS011;55563;52.416;13.548;2023-11-19T08:02:29;1.67;;;1.20;;
68593;SDS011;55563;52.416;13.548;2023-11-19T08:04:29;1.75;;;1.30;;
68593;SDS011;55563;52.416;13.548;2023-11-19T08:06:30;3.92;;;1.92;;
68593;SDS011;55563;52.416;13.548;2023-11-19T08:08:30;4.53;;;2.25;;
68593;SDS011;55563;52.416;13.548;2023-11-19T08:10:33;4.00;;;1.98;;
68593;SDS011;55563;52.416;13.548;2023-11-19T08:12:33;3.47;;;1.95;;
68593;SDS011;55563;52.416;13.548;2023-11-19T08:14:35;2.15;;;1.33;;
68593;SDS011;55563;52.416;13.548;2023-11-19T08:16:38;3.38;;;1.90;;
68593;SDS011;55563;52.416;13.548;2023-11-19T08:18:41;3.47;;;2.22;;
68593;SDS011;55563;52.416;13.548;2023-11-19T08:20:42;3.90;;;2.30;;
68593;SDS011;55563;52.416;13.548;2023-11-19T08:22:44;3.38;;;1.92;;
68593;SDS011;55563;52.416;13.548;2023-11-19T08:24:45;2.88;;;1.77;;
68593;SDS011;55563;52.416;13.548;2023-11-19T08:26:46;2.25;;;1.48;;
68593;SDS011;55563;52.416;13.548;2023-11-19T08:28:46;2.10;;;1.60;;
68593;SDS011;55563;52.416;13.548;2023-11-19T08:30:48;1.67;;;1.38;;
68593;SDS011;55563;52.416;13.548;2023-11-19T08:32:48;2.15;;;1.67;;
68593;SDS011;55563;52.416;13.548;2023-11-19T08:34:49;2.00;;;1.40;;
68593;SDS011;55563;52.416;13.548;2023-11-19T08:36:50;2.45;;;1.27;;
68593;SDS011;55563;52.416;13.548;2023-11-19T08:38:53;2.33;;;1.50;;
68593;SDS011;55563;52.416;13.548;2023-11-19T08:40:54;1.48;;;1.10;;
68593;SDS011;55563;52.416;13.548;2023-11-19T08:42:59;1.70;;;1.30;;
68593;SDS011;55563;52.416;13.548;2023-11-19T08:45:00;1.35;;;1.23;;
68593;SDS011;55563;52.416;13.548;2023-11-19T08:47:00;1.92;;;1.50;;
68593;SDS011;55563;52.416;13.548;2023-11-19T08:49:01;2.83;;;1.58;;
68593;SDS011;55563;52.416;13.548;2023-11-19T08:51:03;2.33;;;1.55;;
68593;SDS011;55563;52.416;13.548;2023-11-19T08:53:04;3.95;;;1.30;;
68593;SDS011;55563;52.416;13.548;2023-11-19T08:55:07;2.53;;;1.60;;
68593;SDS011;55563;52.416;13.548;2023-11-19T08:57:09;2.42;;;1.50;;
68593;SDS011;55563;52.416;13.548;2023-11-19T08:59:10;2.88;;;1.40;;
68593;SDS011;55563;52.416;13.548;2023-11-19T09:01:11;2.40;;;1.50;;
68593;SDS011;55563;52.416;13.548;2023-11-19T09:03:11;2.78;;;1.55;;
68593;SDS011;55563;52.416;13.548;2023-11-19T09:05:12;1.33;;;1.10;;
68593;SDS011;55563;52.416;13.548;2023-11-19T09:07:13;2.00;;;1.55;;
68593;SDS011;55563;52.416;13.548;2023-11-19T09:09:13;2.20;;;1.30;;
68593;SDS011;55563;52.416;13.548;2023-11-19T09:11:14;2.17;;;1.60;;
68593;SDS011;55563;52.416;13.548;2023-11-19T09:13:18;2.85;;;1.92;;
68593;SDS011;55563;52.416;13.548;2023-11-19T09:15:19;2.70;;;1.80;;
68593;SDS011;55563;52.416;13.548;2023-11-19T09:17:19;2.97;;;1.90;;
68593;SDS011;55563;52.416;13.548;2023-11-19T09:19:20;2.65;;;1.80;;
68593;SDS011;55563;52.416;13.548;2023-11-19T09:21:20;2.35;;;1.50;;
68593;SDS011;55563;52.416;13.548;2023-11-19T09:23:21;2.28;;;1.75;;
68593;SDS011;55563;52.416;13.548;2023-11-19T09:25:22;2.08;;;1.40;;
68593;SDS011;55563;52.416;13.548;2023-11-19T09:27:23;2.45;;;1.70;;
68593;SDS011;55563;52.416;13.548;2023-11-19T09:29:23;4.82;;;1.88;;
68593;SDS011;55563;52.416;13.548;2023-11-19T09:31:24;1.73;;;1.48;;
68593;SDS011;55563;52.416;13.548;2023-11-19T09:33:24;2.00;;;1.58;;
68593;SDS011;55563;52.416;13.548;2023-11-19T09:35:26;1.20;;;1.10;;
68593;SDS011;55563;52.416;13.548;2023-11-19T09:37:27;1.02;;;0.90;;
68593;SDS011;55563;52.416;13.548;2023-11-19T09:39:27;1.50;;;1.10;;
68593;SDS011;55563;52.416;13.548;2023-11-19T09:41:29;1.40;;;1.05;;
68593;SDS011;55563;52.416;13.548;2023-11-19T09:43:30;1.23;;;0.90;;
68593;SDS011;55563;52.416;13.548;2023-11-19T09:45:31;1.20;;;1.10;;
68593;SDS011;55563;52.416;13.548;2023-11-19T09:47:42;1.27;;;0.90;;
68593;SDS011;55563;52.416;13.548;2023-11-19T09:49:45;1.45;;;1.10;;
68593;SDS011;55563;52.416;13.548;2023-11-19T09:51:46;1.65;;;1.08;;
68593;SDS011;55563;52.416;13.548;2023-11-19T09:53:46;0.80;;;0.80;;
68593;SDS011;55563;52.416;13.548;2023-11-19T09:55:47;1.13;;;0.80;;
68593;SDS011;55563;52.416;13.548;2023-11-19T09:57:48;1.10;;;0.80;;
68593;SDS011;55563;52.416;13.548;2023-11-19T09:59:52;5.10;;;2.40;;
68593;SDS011;55563;52.416;13.548;2023-11-19T10:01:54;1.48;;;0.90;;
68593;SDS011;55563;52.416;13.548;2023-11-19T10:03:57;1.08;;;0.80;;
68593;SDS011;55563;52.416;13.548;2023-11-19T10:05:58;0.82;;;0.73;;
68593;SDS011;55563;52.416;13.548;2023-11-19T10:08:01;1.73;;;1.15;;
68593;SDS011;55563;52.416;13.548;2023-11-19T10:10:03;0.82;;;0.68;;
68593;SDS011;55563;52.416;13.548;2023-11-19T10:12:04;0.93;;;0.82;;
68593;SDS011;55563;52.416;13.548;2023-11-19T10:14:05;0.82;;;0.63;;
68593;SDS011;55563;52.416;13.548;2023-11-19T10:16:10;0.82;;;0.60;;
68593;SDS011;55563;52.416;13.548;2023-11-19T10:18:14;0.73;;;0.73;;
68593;SDS011;55563;52.416;13.548;2023-11-19T10:20:14;1.25;;;0.77;;
68593;SDS011;55563;52.416;13.548;2023-11-19T10:22:15;0.63;;;0.60;;
68593;SDS011;55563;52.416;13.548;2023-11-19T10:24:17;1.05;;;0.90;;
68593;SDS011;55563;52.416;13.548;2023-11-19T10:26:31;1.27;;;0.90;;
68593;SDS011;55563;52.416;13.548;2023-11-19T10:28:41;0.90;;;0.70;;
68593;SDS011;55563;52.416;13.548;2023-11-19T10:30:48;2.55;;;1.35;;
68593;SDS011;55563;52.416;13.548;2023-11-19T10:33:06;2.47;;;0.85;;
68593;SDS011;55563;52.416;13.548;2023-11-19T10:35:08;0.98;;;0.82;;
68593;SDS011;55563;52.416;13.548;2023-11-19T10:37:27;1.85;;;0.90;;
68593;SDS011;55563;52.416;13.548;2023-11-19T10:40:04;1.40;;;1.00;;
68593;SDS011;55563;52.416;13.548;2023-11-19T10:42:05;1.70;;;1.00;;
68593;SDS011;55563;52.416;13.548;2023-11-19T10:44:31;2.08;;;0.95;;
68593;SDS011;55563;52.416;13.548;2023-11-19T10:46:38;1.40;;;0.93;;
68593;SDS011;55563;52.416;13.548;2023-11-19T10:48:40;2.05;;;0.90;;
68593;SDS011;55563;52.416;13.548;2023-11-19T10:50:41;4.15;;;1.00;;
68593;SDS011;55563;52.416;13.548;2023-11-19T10:52:43;1.30;;;0.80;;
68593;SDS011;55563;52.416;13.548;2023-11-19T10:54:49;1.77;;;1.00;;
68593;SDS011;55563;52.416;13.548;2023-11-19T10:56:54;2.13;;;0.85;;
68593;SDS011;55563;52.416;13.548;2023-11-19T10:58:59;1.10;;;1.00;;
68593;SDS011;55563;52.416;13.548;2023-11-19T11:01:01;1.90;;;0.88;;
68593;SDS011;55563;52.416;13.548;2023-11-19T11:03:05;1.30;;;0.85;;
68593;SDS011;55563;52.416;13.548;2023-11-19T11:05:12;0.95;;;0.82;;
68593;SDS011;55563;52.416;13.548;2023-11-19T11:07:15;2.30;;;0.93;;
68593;SDS011;55563;52.416;13.548;2023-11-19T11:09:16;1.08;;;0.80;;
68593;SDS011;55563;52.416;13.548;2023-11-19T11:11:17;0.98;;;0.80;;
68593;SDS011;55563;52.416;13.548;2023-11-19T11:13:22;2.75;;;0.80;;
68593;SDS011;55563;52.416;13.548;2023-11-19T11:15:26;2.03;;;0.98;;
68593;SDS011;55563;52.416;13.548;2023-11-19T11:17:29;1.08;;;0.95;;
68593;SDS011;55563;52.416;13.548;2023-11-19T11:19:32;2.58;;;0.98;;
68593;SDS011;55563;52.416;13.548;2023-11-19T11:21:34;1.15;;;0.80;;
68593;SDS011;55563;52.416;13.548;2023-11-19T11:28:52;1.42;;;0.93;;
68593;SDS011;55563;52.416;13.548;2023-11-19T11:33:55;1.08;;;0.80;;
68593;SDS011;55563;52.416;13.548;2023-11-19T11:36:13;2.10;;;0.90;;
68593;SDS011;55563;52.416;13.548;2023-11-19T11:38:22;1.45;;;0.90;;
68593;SDS011;55563;52.416;13.548;2023-11-19T11:40:24;2.88;;;1.10;;
68593;SDS011;55563;52.416;13.548;2023-11-19T11:44:57;6.35;;;2.67;;
68593;SDS011;55563;52.416;13.548;2023-11-19T11:47:18;5.03;;;1.85;;
68593;SDS011;55563;52.416;13.548;2023-11-19T11:49:24;5.05;;;1.40;;
68593;SDS011;55563;52.416;13.548;2023-11-19T11:51:57;3.20;;;1.35;;
68593;SDS011;55563;52.416;13.548;2023-11-19T11:53:58;3.75;;;1.48;;
68593;SDS011;55563;52.416;13.548;2023-11-19T11:55:58;2.47;;;1.23;;
68593;SDS011;55563;52.416;13.548;2023-11-19T11:57:59;2.83;;;1.23;;
68593;SDS011;55563;52.416;13.548;2023-11-19T12:00:01;3.20;;;1.48;;
68593;SDS011;55563;52.416;13.548;2023-11-19T12:02:07;3.53;;;1.40;;
68593;SDS011;55563;52.416;13.548;2023-11-19T12:04:09;5.65;;;1.83;;
68593;SDS011;55563;52.416;13.548;2023-11-19T12:06:10;3.25;;;1.40;;
68593;SDS011;55563;52.416;13.548;2023-11-19T12:10:14;4.03;;;1.55;;
68593;SDS011;55563;52.416;13.548;2023-11-19T12:12:18;4.22;;;1.63;;
68593;SDS011;55563;52.416;13.548;2023-11-19T12:14:47;5.00;;;2.25;;
68593;SDS011;55563;52.416;13.548;2023-11-19T12:17:29;4.72;;;1.63;;
68593;SDS011;55563;52.416;13.548;2023-11-19T12:19:41;3.97;;;1.65;;
68593;SDS011;55563;52.416;13.548;2023-11-19T12:21:42;3.60;;;1.65;;
68593;SDS011;55563;52.416;13.548;2023-11-19T12:23:44;6.78;;;1.73;;
68593;SDS011;55563;52.416;13.548;2023-11-19T12:25:48;4.53;;;1.88;;